KSRQ/SRQ METAR and TAF weather

Enter ICAO airport designator
Station Type Date Time Source
KSRQ METAR 2018/12/10 07:53 UTC NOAA

KSRQ 100753Z AUTO 31011KT 10SM FEW017 FEW033 OVC048 18/16 A2996 RMK AO2 RAB39E52 SLP144 P0000 T01830156


Station Type Date Time Source
KSRQ Decoded METAR 2018/12/10 07:53 UTC NOAA

SARASOTA/BRADENTON INTERNATIONAL ., FL, United States (KSRQ) 27-24N 082-33W 18M
Dec 10, 2018 - 02:53 AM EST / 2018.12.10 0753 UTC
Wind: from the NW (310 degrees) at 13 MPH (11 KT):0
Visibility: 10 mile(s):0
Sky conditions: overcast
Precipitation last hour: A trace
Temperature: 64.9 F (18.3 C)
Dew Point: 60.1 F (15.6 C)
Relative Humidity: 84%
Pressure (altimeter): 29.96 in. Hg (1014 hPa)
ob: KSRQ 100753Z AUTO 31011KT 10SM FEW017 FEW033 OVC048 18/16 A2996 RMK AO2 RAB39E52 SLP144 P0000 T01830156
cycle: 8

Station Type Date Time Source
KSRQ TAF 2018/12/10 08:03 UTC NOAA

TAF
AMD KSRQ 100801Z 1008/1106 30011KT P6SM VCSH SCT015 BKN050
TEMPO 1008/1012 5SM -RA BKN015
FM101200 31011KT P6SM SCT015 BKN025
FM101700 32012G19KT P6SM SCT025 BKN040
FM110000 32010KT P6SM FEW020 BKN050


Example: see airport list